Time;durP1;ratioP1;P1;durP2;ratioP2;P2;SDS_P1;SDS_P2;PMS_P1;PMS_P2;Temp;Humidity;BMP_temperature;BMP_pressure;BME280_temperature;BME280_humidity;BME280_pressure;Samples;Min_cycle;Max_cycle;Signal;HPM_P1;HPM_P2
2022/12/13 00:00:05;;;;;;;;;41.50;32.00;;;;;-1.60;100.00;100498.97;5045828;28;45275;-77
2022/12/13 00:02:30;;;;;;;;;49.50;39.00;;;;;-1.67;100.00;100497.53;5044848;28;45397;-78
2022/12/13 00:04:56;;;;;;;;;37.75;33.75;;;;;-1.67;100.00;100495.75;5046212;28;45453;-78
2022/12/13 00:07:21;;;;;;;;;41.75;35.50;;;;;-1.78;100.00;100479.47;5046171;28;45528;-78
2022/12/13 00:09:46;;;;;;;;;42.50;31.75;;;;;-1.75;100.00;100481.94;5044013;28;45412;-78
2022/12/13 00:12:12;;;;;;;;;33.75;31.50;;;;;-1.78;100.00;100483.94;5041679;28;45754;-78
2022/12/13 00:14:37;;;;;;;;;35.25;33.25;;;;;-1.88;100.00;100475.53;5045393;28;45622;-78
2022/12/13 00:17:02;;;;;;;;;47.50;31.00;;;;;-1.85;100.00;100483.38;5041482;28;45335;-78
2022/12/13 00:19:28;;;;;;;;;39.25;35.00;;;;;-1.81;100.00;100489.41;5039510;28;45389;-77
2022/12/13 00:21:53;;;;;;;;;36.00;27.75;;;;;-1.83;100.00;100489.50;5024402;28;45457;-77
2022/12/13 00:24:19;;;;;;;;;41.00;29.50;;;;;-1.90;100.00;100474.75;5041326;28;45347;-77
2022/12/13 00:26:44;;;;;;;;;50.00;39.25;;;;;-1.93;100.00;100482.03;5027179;28;46972;-77
2022/12/13 00:29:10;;;;;;;;;40.25;29.25;;;;;-1.97;100.00;100490.16;5038912;28;45248;-78
2022/12/13 00:31:36;;;;;;;;;38.25;32.75;;;;;-2.01;100.00;100485.06;5045581;28;45537;-78
2022/12/13 00:34:01;;;;;;;;;41.75;34.00;;;;;-2.07;100.00;100480.06;5044626;28;45254;-77
2022/12/13 00:36:27;;;;;;;;;45.50;31.75;;;;;-2.12;100.00;100474.09;5045571;28;45368;-78
2022/12/13 00:39:02;;;;;;;;;33.00;29.00;;;;;-2.11;100.00;100470.47;5061146;28;45271;-77
2022/12/13 00:41:33;;;;;;;;;38.50;31.00;;;;;-2.08;100.00;100475.66;5031700;28;45339;-77
2022/12/13 00:43:59;;;;;;;;;42.25;33.50;;;;;-2.08;100.00;100471.19;5043581;28;45627;-77
2022/12/13 00:46:25;;;;;;;;;36.00;31.75;;;;;-2.06;100.00;100479.13;5032500;28;47081;-77
2022/12/13 00:48:53;;;;;;;;;43.25;29.75;;;;;-2.03;100.00;100474.50;5043830;28;45536;-77
2022/12/13 00:51:20;;;;;;;;;32.75;28.25;;;;;-2.01;100.00;100466.44;5044920;28;45219;-77
2022/12/13 00:53:46;;;;;;;;;40.75;32.00;;;;;-2.04;100.00;100456.78;5045626;28;45340;-77
2022/12/13 00:56:14;;;;;;;;;32.25;26.25;;;;;-1.98;100.00;100468.97;5043151;28;46428;-77
2022/12/13 00:58:40;;;;;;;;;30.75;29.00;;;;;-2.01;100.00;100463.78;5042751;28;45231;-78
2022/12/13 01:01:10;;;;;;;;;41.75;30.75;;;;;-1.97;100.00;100473.31;5045153;28;45235;-78
2022/12/13 01:03:37;;;;;;;;;37.50;26.25;;;;;-1.98;100.00;100467.16;5045243;28;45307;-77
2022/12/13 01:06:17;;;;;;;;;34.75;24.75;;;;;-2.04;100.00;100459.44;5044783;28;45717;-77
2022/12/13 01:08:43;;;;;;;;;34.00;25.25;;;;;-1.94;100.00;100467.84;5043526;28;45292;-78
2022/12/13 01:11:09;;;;;;;;;28.50;21.25;;;;;-1.91;100.00;100462.38;5040384;28;45449;-78
2022/12/13 01:13:36;;;;;;;;;34.50;26.00;;;;;-1.91;100.00;100454.41;5043780;28;45457;-78
2022/12/13 01:16:04;;;;;;;;;35.75;33.25;;;;;-1.89;100.00;100464.94;5044898;28;46312;-78
2022/12/13 01:18:30;;;;;;;;;39.75;28.00;;;;;-1.98;100.00;100450.31;5044647;28;45457;-77
2022/12/13 01:21:05;;;;;;;;;31.75;28.50;;;;;-1.91;100.00;100462.38;5044967;28;45271;-78
2022/12/13 01:23:31;;;;;;;;;39.25;30.25;;;;;-1.93;100.00;100460.72;5045769;28;45243;-78
2022/12/13 01:25:56;;;;;;;;;36.75;29.50;;;;;-1.91;100.00;100465.06;5044426;28;45393;-77
2022/12/13 01:28:23;;;;;;;;;27.75;25.00;;;;;-1.92;100.00;100463.31;5044107;28;45358;-78
2022/12/13 01:31:00;;;;;;;;;32.25;28.00;;;;;-1.97;100.00;100462.66;5044828;28;45334;-77
2022/12/13 01:33:27;;;;;;;;;38.00;32.25;;;;;-2.02;100.00;100462.03;5045603;28;45312;-78
2022/12/13 01:35:53;;;;;;;;;28.00;22.75;;;;;-2.00;100.00;100481.47;5041443;28;46666;-78
2022/12/13 01:38:18;;;;;;;;;34.00;28.00;;;;;-2.04;100.00;100455.94;5040341;28;45394;-77
2022/12/13 01:40:56;;;;;;;;;30.50;28.00;;;;;-2.04;100.00;100445.28;5037904;28;45345;-77
2022/12/13 01:43:42;;;;;;;;;33.50;24.75;;;;;-2.03;100.00;100444.34;5045532;28;45239;-78
2022/12/13 01:46:09;;;;;;;;;31.00;28.75;;;;;-1.94;100.00;100457.19;5017563;28;48191;-78
2022/12/13 01:48:45;;;;;;;;;26.00;22.25;;;;;-1.93;100.00;100448.28;5042993;28;45402;-78
2022/12/13 01:51:13;;;;;;;;;25.25;24.25;;;;;-1.96;100.00;100464.41;5039680;28;45374;-78
2022/12/13 01:53:41;;;;;;;;;34.00;29.00;;;;;-2.03;100.00;100447.88;5039187;28;45485;-79
2022/12/13 01:56:29;;;;;;;;;32.50;25.75;;;;;-2.03;100.00;100445.22;5042199;28;47076;-76
2022/12/13 01:58:56;;;;;;;;;40.50;28.25;;;;;-1.99;100.00;100444.13;5042660;28;45450;-78
2022/12/13 02:01:22;;;;;;;;;35.50;30.50;;;;;-2.01;100.00;100461.13;5042857;28;45381;-77
2022/12/13 02:03:47;;;;;;;;;30.25;22.50;;;;;-2.05;100.00;100459.56;5044611;28;45188;-77
2022/12/13 02:06:22;;;;;;;;;19.75;19.75;;;;;-2.01;100.00;100469.97;5042946;28;47364;-78
2022/12/13 02:08:48;;;;;;;;;30.50;22.75;;;;;-2.01;100.00;100461.13;5042941;28;45355;-78
2022/12/13 02:11:14;;;;;;;;;39.00;26.50;;;;;-1.99;100.00;100461.91;5044174;28;45302;-78
2022/12/13 02:13:41;;;;;;;;;30.00;24.50;;;;;-1.98;100.00;100463.63;5039257;28;45189;-78
2022/12/13 02:16:13;;;;;;;;;32.75;23.00;;;;;-1.96;100.00;100461.72;5036956;28;45291;-78
2022/12/13 02:18:59;;;;;;;;;32.00;24.75;;;;;-1.96;100.00;100461.72;5044504;28;45527;-77
2022/12/13 02:21:27;;;;;;;;;36.00;27.75;;;;;-1.97;100.00;100462.66;5041983;28;45438;-78
2022/12/13 02:23:54;;;;;;;;;29.75;25.00;;;;;-1.93;100.00;100469.59;5044637;28;45298;-77
2022/12/13 02:26:43;;;;;;;;;39.00;26.50;;;;;-1.96;100.00;100467.06;5042397;28;46303;-77
2022/12/13 02:29:41;;;;;;;;;25.50;21.50;;;;;-2.02;100.00;100452.25;5044045;28;45441;-78
2022/12/13 02:32:22;;;;;;;;;32.25;22.50;;;;;-1.97;100.00;100462.66;5042380;28;45430;-78
2022/12/13 02:35:01;;;;;;;;;28.75;23.50;;;;;-1.97;100.00;100460.00;5042639;28;45673;-78
2022/12/13 02:37:55;;;;;;;;;27.50;20.25;;;;;-2.10;100.00;100440.25;5041976;28;48260;-77
2022/12/13 02:40:39;;;;;;;;;37.50;28.75;;;;;-1.99;100.00;100459.25;5041969;28;45777;-77
2022/12/13 02:43:22;;;;;;;;;22.50;19.00;;;;;-2.00;100.00;100462.84;5043992;28;45468;-78
2022/12/13 02:45:52;;;;;;;;;19.25;19.25;;;;;-2.08;100.00;100438.41;5043830;28;45517;-77
2022/12/13 02:48:24;;;;;;;;;22.00;18.50;;;;;-2.15;100.00;100439.66;5041995;28;45315;-77
2022/12/13 02:50:51;;;;;;;;;30.50;20.25;;;;;-2.09;100.00;100439.34;5043087;28;45275;-78
2022/12/13 02:53:20;;;;;;;;;39.50;26.50;;;;;-2.12;100.00;100443.00;5043609;28;45239;-77
2022/12/13 02:55:45;;;;;;;;;26.50;23.00;;;;;-2.10;100.00;100450.91;5043796;28;45345;-77
2022/12/13 02:58:14;;;;;;;;;34.75;25.25;;;;;-2.09;100.00;100442.00;5041933;28;47329;-77
2022/12/13 03:00:57;;;;;;;;;25.75;22.50;;;;;-2.09;100.00;100447.31;5038287;28;45743;-77
2022/12/13 03:03:25;;;;;;;;;33.50;27.25;;;;;-2.07;100.00;100448.97;5038272;28;45350;-77
2022/12/13 03:09:24;;;;;;;;;32.75;26.00;;;;;-2.16;100.00;100443.22;5043051;28;45204;-77
2022/12/13 03:14:44;;;;;;;;;34.00;22.25;;;;;-2.13;100.00;100435.97;5043252;28;45421;-77
2022/12/13 03:17:15;;;;;;;;;30.00;24.75;;;;;-2.14;100.00;100434.25;5039241;28;45520;-77
2022/12/13 03:19:41;;;;;;;;;34.50;28.50;;;;;-2.07;100.00;100434.81;5036382;28;46168;-77
2022/12/13 03:22:06;;;;;;;;;28.00;25.00;;;;;-2.18;100.00;100405.19;5023531;28;45325;-78
2022/12/13 03:24:32;;;;;;;;;34.00;28.00;;;;;-2.10;100.00;100414.50;5029435;28;45406;-78
2022/12/13 03:26:57;;;;;;;;;38.50;29.00;;;;;-2.14;100.00;100409.44;5049527;28;45480;-77
2022/12/13 03:29:22;;;;;;;;;31.00;30.00;;;;;-2.09;100.00;100415.38;5036474;28;45337;-78
2022/12/13 03:31:48;;;;;;;;;39.25;29.00;;;;;-2.11;100.00;100411.91;5049956;28;45343;-78
2022/12/13 03:34:13;;;;;;;;;37.25;25.00;;;;;-2.08;100.00;100411.78;5050205;28;45264;-79
2022/12/13 03:36:39;;;;;;;;;34.25;27.75;;;;;-2.11;100.00;100404.81;5049096;28;45215;-78
2022/12/13 03:39:04;;;;;;;;;31.75;28.25;;;;;-2.12;100.00;100412.88;5048127;28;47567;-78
2022/12/13 03:41:31;;;;;;;;;41.00;25.50;;;;;-2.12;100.00;100411.06;5049623;28;45237;-78
2022/12/13 03:43:58;;;;;;;;;41.25;26.00;;;;;-2.12;100.00;100410.22;5048751;28;45255;-78
2022/12/13 03:46:23;;;;;;;;;32.50;26.75;;;;;-2.09;100.00;100421.56;5050478;28;45251;-77
2022/12/13 03:48:49;;;;;;;;;31.25;26.75;;;;;-2.12;100.00;100402.25;5046387;28;46599;-77
2022/12/13 03:51:14;;;;;;;;;40.75;29.25;;;;;-2.07;100.00;100405.53;5049616;28;45253;-78
2022/12/13 03:53:40;;;;;;;;;30.25;29.75;;;;;-2.07;100.00;100405.53;5046058;28;45411;-77
2022/12/13 03:56:05;;;;;;;;;34.00;31.25;;;;;-2.13;100.00;100397.84;5048709;28;45324;-78
2022/12/13 03:58:33;;;;;;;;;35.50;32.25;;;;;-2.08;100.00;100402.00;5049721;28;45590;-77
2022/12/13 04:00:58;;;;;;;;;36.00;27.75;;;;;-2.14;100.00;100404.97;5048376;28;45361;-77
2022/12/13 04:03:23;;;;;;;;;35.00;31.50;;;;;-2.16;100.00;100400.66;5049163;28;45256;-77
2022/12/13 04:05:49;;;;;;;;;44.25;32.75;;;;;-2.14;100.00;100412.97;5049772;28;45192;-77
2022/12/13 04:08:14;;;;;;;;;33.25;23.25;;;;;-2.18;100.00;100406.03;5049403;28;45381;-78
2022/12/13 04:10:39;;;;;;;;;35.25;25.75;;;;;-2.19;100.00;100409.66;5049063;28;45319;-77
2022/12/13 04:15:49;;;;;;;;;38.75;29.25;;;;;-2.18;100.00;100410.50;5049738;28;45303;-77
2022/12/13 04:18:16;;;;;;;;;33.25;30.25;;;;;-2.21;100.00;100408.88;5031517;28;46357;-77
2022/12/13 04:20:41;;;;;;;;;44.50;35.25;;;;;-2.21;100.00;100408.88;5047021;28;45324;-77
2022/12/13 04:23:07;;;;;;;;;40.25;33.25;;;;;-2.27;100.00;100400.34;5049171;28;45255;-79
2022/12/13 04:25:32;;;;;;;;;36.00;30.00;;;;;-2.27;100.00;100411.00;5049007;28;45153;-77
2022/12/13 04:27:57;;;;;;;;;33.25;29.75;;;;;-2.26;100.00;100410.88;5043027;28;46993;-76
2022/12/13 04:30:23;;;;;;;;;30.75;28.75;;;;;-2.24;100.00;100418.81;5027862;28;45607;-77
2022/12/13 04:32:48;;;;;;;;;42.25;29.25;;;;;-2.28;100.00;100404.81;5027513;28;45440;-77
2022/12/13 04:35:13;;;;;;;;;39.00;31.25;;;;;-2.26;100.00;100407.38;5025589;28;45186;-76
2022/12/13 04:37:39;;;;;;;;;41.75;33.00;;;;;-2.39;100.00;100392.00;5025707;28;46561;-77
2022/12/13 04:40:05;;;;;;;;;41.50;29.75;;;;;-2.40;100.00;100390.28;5025855;28;45264;-77
2022/12/13 04:42:30;;;;;;;;;33.75;31.75;;;;;-2.41;100.00;100391.22;5026825;28;45394;-77
2022/12/13 04:44:55;;;;;;;;;36.75;33.50;;;;;-2.50;100.00;100382.84;5041370;28;45330;-77
2022/12/13 04:47:21;;;;;;;;;39.00;31.75;;;;;-2.43;100.00;100378.94;5024679;28;47737;-78
2022/12/13 04:49:46;;;;;;;;;39.50;31.00;;;;;-2.46;100.00;100379.97;5025981;28;45276;-77
2022/12/13 04:52:12;;;;;;;;;35.50;33.25;;;;;-2.38;100.00;100388.41;5041640;28;45389;-77
2022/12/13 04:54:37;;;;;;;;;39.50;33.75;;;;;-2.40;100.00;100378.78;5046085;28;45418;-78
2022/12/13 04:57:08;;;;;;;;;39.00;32.75;;;;;-2.33;100.00;100387.31;5046397;28;45524;-78
2022/12/13 04:59:34;;;;;;;;;46.00;34.75;;;;;-2.34;100.00;100385.63;5045428;28;45222;-78
2022/12/13 05:02:00;;;;;;;;;38.00;30.50;;;;;-2.40;100.00;100374.31;5057837;28;45383;-78
2022/12/13 05:04:25;;;;;;;;;48.75;36.50;;;;;-2.47;100.00;100364.06;5035389;28;45476;-77
2022/12/13 05:06:51;;;;;;;;;40.25;33.50;;;;;-2.37;100.00;100378.66;5029671;28;45477;-78
2022/12/13 05:09:17;;;;;;;;;47.50;37.50;;;;;-2.32;100.00;100379.25;5044679;28;45488;-78
2022/12/13 05:11:42;;;;;;;;;42.25;34.75;;;;;-2.33;100.00;100379.34;5045022;28;45466;-78
2022/12/13 05:14:07;;;;;;;;;34.50;29.75;;;;;-2.28;100.00;100383.50;5040719;28;45707;-78
2022/12/13 05:16:32;;;;;;;;;53.25;44.50;;;;;-2.27;100.00;100379.94;5040529;28;45302;-77
2022/12/13 05:18:58;;;;;;;;;43.75;37.00;;;;;-2.23;100.00;100376.16;5044077;28;45531;-78
2022/12/13 05:21:23;;;;;;;;;42.25;36.75;;;;;-2.26;100.00;100370.97;5042565;28;45299;-78
2022/12/13 05:23:49;;;;;;;;;42.75;35.25;;;;;-2.28;100.00;100380.84;5045193;28;45326;-78
2022/12/13 05:26:14;;;;;;;;;37.50;29.75;;;;;-2.33;100.00;100377.53;5042861;28;47518;-78
2022/12/13 05:28:39;;;;;;;;;41.00;36.50;;;;;-2.32;100.00;100376.59;5043075;28;45445;-78
2022/12/13 05:31:08;;;;;;;;;45.75;36.50;;;;;-2.31;100.00;100380.13;5042856;28;45789;-79
2022/12/13 05:33:34;;;;;;;;;38.00;31.75;;;;;-2.37;100.00;100379.50;5043665;28;45632;-77
2022/12/13 05:35:59;;;;;;;;;39.25;36.50;;;;;-2.37;100.00;100376.84;5044488;28;46268;-77
2022/12/13 05:38:24;;;;;;;;;38.50;35.00;;;;;-2.40;100.00;100368.16;5043915;28;45291;-78
2022/12/13 05:40:50;;;;;;;;;37.00;34.25;;;;;-2.36;100.00;100386.56;5041702;28;45381;-78
2022/12/13 05:43:15;;;;;;;;;47.75;40.75;;;;;-2.40;100.00;100392.94;5032419;28;45304;-77
2022/12/13 05:45:41;;;;;;;;;51.00;35.75;;;;;-2.34;100.00;100406.91;5040932;28;46461;-78
2022/12/13 05:48:07;;;;;;;;;39.25;34.25;;;;;-2.39;100.00;100400.00;5042065;28;45287;-77
2022/12/13 05:50:33;;;;;;;;;42.00;31.50;;;;;-2.34;100.00;100393.59;5043874;28;45382;-78
2022/12/13 05:52:59;;;;;;;;;50.75;37.00;;;;;-2.32;100.00;100389.03;5042631;28;45471;-79
2022/12/13 05:55:24;;;;;;;;;38.50;33.25;;;;;-2.29;100.00;100394.22;5044292;28;45331;-78
2022/12/13 05:57:50;;;;;;;;;37.00;28.75;;;;;-2.23;100.00;100393.91;5044103;28;45176;-78
2022/12/13 06:00:15;;;;;;;;;42.25;32.75;;;;;-2.29;100.00;100387.13;5042700;28;45385;-80
2022/12/13 06:02:42;;;;;;;;;48.75;36.00;;;;;-2.23;100.00;100393.91;5044543;28;45563;-78
2022/12/13 06:05:09;;;;;;;;;42.25;34.00;;;;;-2.25;100.00;100393.13;5042346;28;47171;-79
2022/12/13 06:07:35;;;;;;;;;37.50;33.50;;;;;-2.26;100.00;100391.41;5042306;28;45312;-77
2022/12/13 06:10:01;;;;;;;;;43.75;37.25;;;;;-2.22;100.00;100398.31;5044225;28;45401;-79
2022/12/13 06:12:27;;;;;;;;;44.25;40.00;;;;;-2.20;100.00;100410.59;5034100;28;45637;-79
2022/12/13 06:14:52;;;;;;;;;54.75;43.00;;;;;-2.22;100.00;100408.94;5021934;28;45314;-78
2022/12/13 06:17:18;;;;;;;;;41.50;39.00;;;;;-2.19;100.00;100417.63;5022715;28;45414;-77
2022/12/13 06:19:45;;;;;;;;;49.75;38.00;;;;;-2.19;100.00;100422.13;5035129;28;45323;-79
2022/12/13 06:22:10;;;;;;;;;38.50;33.75;;;;;-2.18;100.00;100421.16;5022403;28;45281;-77
2022/12/13 06:24:36;;;;;;;;;42.50;34.25;;;;;-2.15;100.00;100415.69;5022526;28;46528;-79
2022/12/13 06:27:03;;;;;;;;;48.25;38.25;;;;;-2.17;100.00;100417.56;5023865;28;45390;-76
2022/12/13 06:29:28;;;;;;;;;37.00;33.25;;;;;-2.19;100.00;100425.59;5038402;28;45266;-79
2022/12/13 06:31:56;;;;;;;;;47.00;36.75;;;;;-2.14;100.00;100423.59;5038752;28;45260;-78
2022/12/13 06:34:22;;;;;;;;;40.00;33.50;;;;;-2.08;100.00;100422.44;5038354;28;47835;-78
2022/12/13 06:36:47;;;;;;;;;41.00;35.75;;;;;-2.11;100.00;100419.91;5023464;28;45327;-79
2022/12/13 06:39:14;;;;;;;;;35.75;27.50;;;;;-2.13;100.00;100419.16;5022842;28;45332;-78
2022/12/13 06:41:40;;;;;;;;;47.00;39.50;;;;;-2.09;100.00;100428.69;5023945;28;45268;-78
2022/12/13 06:44:06;;;;;;;;;37.50;37.50;;;;;-2.06;100.00;100423.22;5022937;28;46118;-79
2022/12/13 06:46:31;;;;;;;;;47.00;36.50;;;;;-2.20;100.00;100396.44;5023082;28;45767;-79
2022/12/13 06:48:57;;;;;;;;;34.00;31.75;;;;;-2.08;100.00;100411.78;5022317;28;45534;-77
2022/12/13 06:51:22;;;;;;;;;45.50;32.25;;;;;-2.10;100.00;100413.66;5032942;28;45309;-78
2022/12/13 06:53:48;;;;;;;;;36.75;29.25;;;;;-2.16;100.00;100408.63;5042659;28;45226;-78
2022/12/13 06:56:13;;;;;;;;;51.00;32.50;;;;;-2.15;100.00;100405.03;5033679;28;45319;-78
2022/12/13 06:58:40;;;;;;;;;50.25;39.75;;;;;-2.14;100.00;100401.44;5021085;28;45209;-78
2022/12/13 07:01:10;;;;;;;;;44.25;35.75;;;;;-2.13;100.00;100403.19;5021332;28;45526;-77
2022/12/13 07:03:36;;;;;;;;;46.25;38.75;;;;;-2.11;100.00;100396.81;5022524;28;45625;-79
2022/12/13 07:06:21;;;;;;;;;39.00;36.00;;;;;-2.14;100.00;100390.81;5021913;28;45252;-79
2022/12/13 07:08:49;;;;;;;;;53.00;31.75;;;;;-2.06;100.00;100397.47;5022916;28;45311;-79
2022/12/13 07:11:16;;;;;;;;;46.25;37.50;;;;;-2.05;100.00;100393.88;5024253;28;45502;-79
2022/12/13 07:13:42;;;;;;;;;52.50;36.50;;;;;-2.01;100.00;100397.22;5040617;28;46357;-78
2022/12/13 07:16:09;;;;;;;;;45.00;33.00;;;;;-1.99;100.00;100393.56;5042840;28;45359;-79
2022/12/13 07:18:34;;;;;;;;;50.00;37.75;;;;;-2.04;100.00;100390.25;5042693;28;45295;-79
2022/12/13 07:20:59;;;;;;;;;56.25;41.50;;;;;-2.03;100.00;100397.28;5029876;28;45532;-79
2022/12/13 07:23:25;;;;;;;;;30.00;27.00;;;;;-2.10;100.00;100397.69;5021426;28;47862;-78
2022/12/13 07:25:52;;;;;;;;;45.00;40.00;;;;;-2.02;100.00;100411.47;5038054;28;45601;-79
2022/12/13 07:28:18;;;;;;;;;48.75;37.50;;;;;-2.01;100.00;100410.53;5022912;28;45223;-80
2022/12/13 07:30:43;;;;;;;;;64.00;47.25;;;;;-2.06;100.00;100410.78;5023770;28;45497;-79
2022/12/13 07:33:09;;;;;;;;;37.25;33.25;;;;;-2.03;100.00;100404.41;5023259;28;45338;-80
2022/12/13 07:35:34;;;;;;;;;41.50;31.00;;;;;-1.99;100.00;100406.00;5021220;28;45224;-79
2022/12/13 07:38:00;;;;;;;;;50.50;39.75;;;;;-1.88;100.00;100418.75;5021533;28;45496;-80
2022/12/13 07:40:25;;;;;;;;;53.00;41.50;;;;;-1.90;100.00;100410.88;5038413;28;45298;-79
2022/12/13 07:42:53;;;;;;;;;46.00;37.75;;;;;-1.87;100.00;100421.34;5041754;28;45644;-78
2022/12/13 07:45:18;;;;;;;;;48.50;41.50;;;;;-1.96;100.00;100414.69;5043026;28;45291;-81
2022/12/13 07:47:44;;;;;;;;;39.25;38.00;;;;;-1.94;100.00;100432.38;5039494;28;45373;-78
2022/12/13 07:50:10;;;;;;;;;58.00;44.75;;;;;-1.99;100.00;100428.16;5041561;28;45347;-78
2022/12/13 07:52:36;;;;;;;;;49.75;42.25;;;;;-1.96;100.00;100445.75;5041267;28;45595;-78
2022/12/13 07:55:01;;;;;;;;;48.50;44.75;;;;;-1.90;100.00;100442.81;5037649;28;45204;-79
2022/12/13 07:57:27;;;;;;;;;50.50;39.50;;;;;-1.97;100.00;100447.56;5042581;28;45265;-78
2022/12/13 07:59:52;;;;;;;;;44.00;34.75;;;;;-1.92;100.00;100455.34;5042407;28;45245;-79
2022/12/13 08:02:17;;;;;;;;;53.50;43.25;;;;;-2.01;100.00;100446.00;5042046;28;46649;-78
2022/12/13 08:04:43;;;;;;;;;50.50;43.75;;;;;-1.87;100.00;100463.94;5041098;28;45292;-79
2022/12/13 08:07:09;;;;;;;;;48.25;44.25;;;;;-1.87;100.00;100465.75;5035309;28;45307;-76
2022/12/13 08:09:35;;;;;;;;;45.50;38.00;;;;;-1.85;100.00;100458.53;5035349;28;45236;-78
2022/12/13 08:12:00;;;;;;;;;47.50;36.00;;;;;-1.83;100.00;100451.34;5043269;28;45444;-78
2022/12/13 08:14:26;;;;;;;;;58.50;44.50;;;;;-1.77;100.00;100457.22;5045983;28;45256;-80
2022/12/13 08:16:52;;;;;;;;;53.00;44.00;;;;;-1.75;100.00;100460.66;5045832;28;45377;-78
2022/12/13 08:19:18;;;;;;;;;45.00;42.25;;;;;-1.71;100.00;100456.91;5046098;28;45480;-78
2022/12/13 08:21:43;;;;;;;;;42.75;41.25;;;;;-1.70;100.00;100461.31;5041748;28;46325;-79
2022/12/13 08:24:09;;;;;;;;;43.25;34.50;;;;;-1.80;100.00;100444.06;5037630;28;45338;-79
2022/12/13 08:26:34;;;;;;;;;45.50;40.00;;;;;-1.69;100.00;100468.34;5046876;28;45377;-78
2022/12/13 08:29:00;;;;;;;;;50.25;44.25;;;;;-1.66;100.00;100456.66;5044318;28;45340;-78
2022/12/13 08:31:25;;;;;;;;;41.75;32.75;;;;;-1.57;100.00;100465.06;5044011;28;47292;-78
2022/12/13 08:33:51;;;;;;;;;54.25;44.00;;;;;-1.55;100.00;100464.13;5040584;28;45282;-79
2022/12/13 08:36:16;;;;;;;;;45.50;44.00;;;;;-1.49;100.00;100482.44;5043875;28;45165;-78
2022/12/13 08:38:45;;;;;;;;;46.50;41.75;;;;;-1.49;100.00;100471.78;5045781;28;45447;-78
2022/12/13 08:41:12;;;;;;;;;48.50;35.25;;;;;-1.47;100.00;100469.91;5044113;28;46657;-78
2022/12/13 08:43:38;;;;;;;;;57.50;46.75;;;;;-1.44;100.00;100472.41;5040269;28;45986;-79
2022/12/13 08:46:04;;;;;;;;;55.25;44.00;;;;;-1.45;100.00;100476.00;5037359;28;45470;-78
2022/12/13 08:48:30;;;;;;;;;59.50;47.75;;;;;-1.42;100.00;100474.06;5032870;28;45315;-78
2022/12/13 08:51:13;;;;;;;;;46.50;41.25;;;;;-1.32;100.00;100485.97;5042740;28;47075;-79
2022/12/13 08:53:39;;;;;;;;;50.25;42.25;;;;;-1.34;100.00;100474.53;5044856;28;45265;-79
2022/12/13 08:56:09;;;;;;;;;58.00;46.75;;;;;-1.23;100.00;100487.28;5036360;28;45311;-78
2022/12/13 08:58:35;;;;;;;;;55.50;48.00;;;;;-1.24;100.00;100480.22;5041128;28;45172;-79
2022/12/13 09:01:05;;;;;;;;;64.75;46.75;;;;;-1.22;100.00;100476.53;5043253;28;47092;-79
2022/12/13 09:03:30;;;;;;;;;53.50;39.25;;;;;-1.17;100.00;100480.78;5043290;28;45320;-79
2022/12/13 09:05:55;;;;;;;;;53.00;44.50;;;;;-1.21;100.00;100458.75;5044705;28;45235;-79
2022/12/13 09:08:21;;;;;;;;;55.25;46.00;;;;;-1.12;100.00;100465.41;5044132;28;45243;-78
2022/12/13 09:10:55;;;;;;;;;60.50;46.50;;;;;-1.09;100.00;100465.22;5044295;28;45391;-78
2022/12/13 09:13:20;;;;;;;;;47.00;44.00;;;;;-1.01;100.00;100463.00;5044230;28;45295;-78
2022/12/13 09:15:46;;;;;;;;;47.75;43.25;;;;;-1.02;100.00;100442.66;5044324;28;45282;-79
2022/12/13 09:18:11;;;;;;;;;53.75;39.50;;;;;-1.02;100.00;100451.47;5044526;28;45426;-79
2022/12/13 09:20:37;;;;;;;;;64.50;42.50;;;;;-1.04;100.00;100465.84;5032946;28;48061;-79
2022/12/13 09:23:05;;;;;;;;;48.25;40.00;;;;;-1.07;100.00;100460.66;5043100;28;45211;-79
2022/12/13 09:25:31;;;;;;;;;51.00;42.00;;;;;-1.09;100.00;100457.22;5045232;28;45452;-77
2022/12/13 09:27:57;;;;;;;;;59.25;39.75;;;;;-1.05;100.00;100450.78;5045168;28;45337;-78
2022/12/13 09:30:22;;;;;;;;;55.25;41.50;;;;;-1.03;100.00;100460.44;5044828;28;45794;-78
2022/12/13 09:32:49;;;;;;;;;55.75;46.00;;;;;-1.10;100.00;100451.06;5044859;28;45322;-78
2022/12/13 09:35:15;;;;;;;;;54.50;44.25;;;;;-1.20;100.00;100433.81;5040007;28;45338;-78
2022/12/13 09:37:40;;;;;;;;;41.25;36.75;;;;;-1.09;100.00;100439.41;5041641;28;45444;-80
2022/12/13 09:40:06;;;;;;;;;64.50;46.75;;;;;-1.01;100.00;100439.88;5044501;28;46425;-79
2022/12/13 09:42:34;;;;;;;;;48.75;41.00;;;;;-0.97;100.00;100453.91;5041147;28;45248;-78
2022/12/13 09:45:05;;;;;;;;;57.50;44.50;;;;;-0.99;100.00;100446.00;5035153;28;45149;-78
2022/12/13 09:47:39;;;;;;;;;50.25;40.50;;;;;-0.95;100.00;100460.88;5043794;28;45378;-78
2022/12/13 09:50:08;;;;;;;;;48.25;38.00;;;;;-0.99;100.00;100442.47;5043640;28;45271;-78
2022/12/13 09:52:40;;;;;;;;;46.25;41.50;;;;;-0.97;100.00;100441.44;5058659;28;45366;-80
2022/12/13 09:55:19;;;;;;;;;58.00;43.75;;;;;-0.90;100.00;100447.31;5046312;28;45420;-78
2022/12/13 09:57:46;;;;;;;;;52.50;44.50;;;;;-0.88;100.00;100446.25;5033202;28;45386;-78
2022/12/13 10:00:15;;;;;;;;;55.75;46.50;;;;;-0.83;100.00;100441.56;5042299;28;46420;-79
2022/12/13 10:02:47;;;;;;;;;39.75;35.25;;;;;-0.73;100.00;100451.72;5042560;28;45853;-77
2022/12/13 10:05:15;;;;;;;;;47.25;38.00;;;;;-0.68;100.00;100449.66;5042930;28;45458;-79
2022/12/13 10:07:41;;;;;;;;;52.25;45.25;;;;;-0.62;100.00;100447.50;5045728;28;45589;-78
2022/12/13 10:10:11;;;;;;;;;74.75;48.25;;;;;-0.63;100.00;100436.91;5043282;28;45244;-80
2022/12/13 10:12:39;;;;;;;;;58.75;47.00;;;;;-0.57;100.00;100444.56;5043981;28;45361;-78
2022/12/13 10:15:05;;;;;;;;;68.50;48.50;;;;;-0.53;100.00;100451.47;5042605;28;45388;-79
2022/12/13 10:17:37;;;;;;;;;67.75;50.00;;;;;-0.55;100.00;100448.88;5043361;28;45268;-80
2022/12/13 10:20:05;;;;;;;;;52.75;44.25;;;;;-0.48;100.00;100452.06;5038897;28;46570;-79
2022/12/13 10:22:30;;;;;;;;;45.25;42.75;;;;;-0.46;100.00;100442.19;5023697;28;45302;-79
2022/12/13 10:25:04;;;;;;;;;54.00;44.00;;;;;-0.44;100.00;100445.63;5023750;28;45263;-79
2022/12/13 10:27:56;;;;;;;;;54.75;42.75;;;;;-0.39;100.00;100448.88;5022490;28;45334;-78
2022/12/13 10:30:23;;;;;;;;;42.50;34.75;;;;;-0.37;100.00;100436.31;5031673;28;45691;-80
2022/12/13 10:32:51;;;;;;;;;53.00;44.00;;;;;-0.37;100.00;100446.13;5042589;28;45318;-78
2022/12/13 10:35:25;;;;;;;;;53.50;38.00;;;;;-0.36;100.00;100435.34;5042595;28;45253;-78
2022/12/13 10:37:52;;;;;;;;;54.75;44.50;;;;;-0.31;100.00;100448.44;5044274;28;45284;-78
2022/12/13 10:40:32;;;;;;;;;50.00;40.75;;;;;-0.20;100.00;100438.00;5042038;28;45528;-79
2022/12/13 10:43:09;;;;;;;;;42.75;38.75;;;;;-0.19;100.00;100435.25;5043598;28;45255;-80
2022/12/13 10:45:35;;;;;;;;;54.25;43.75;;;;;-0.18;100.00;100420.09;5042233;28;45348;-79
2022/12/13 10:48:02;;;;;;;;;49.75;43.25;;;;;-0.25;100.00;100408.06;5043764;28;45168;-79
2022/12/13 10:50:29;;;;;;;;;54.00;43.75;;;;;-0.22;100.00;100408.72;5042378;28;45243;-78
2022/12/13 10:52:57;;;;;;;;;45.50;42.50;;;;;-0.20;100.00;100406.84;5043316;28;45173;-78
2022/12/13 10:55:35;;;;;;;;;47.00;37.75;;;;;-0.12;100.00;100409.06;5027409;28;45308;-78
2022/12/13 10:58:06;;;;;;;;;52.75;40.75;;;;;-0.08;100.00;100414.16;5024525;28;45509;-78
2022/12/13 11:00:31;;;;;;;;;44.50;40.25;;;;;-0.04;100.00;100415.69;5023102;28;45443;-78
2022/12/13 11:02:57;;;;;;;;;48.75;40.25;;;;;-0.05;100.00;100400.59;5022951;28;45383;-79
2022/12/13 11:05:33;;;;;;;;;41.75;36.00;;;;;0.05;100.00;100394.72;5026665;28;45321;-79
2022/12/13 11:08:21;;;;;;;;;51.00;41.50;;;;;0.02;100.00;100387.75;5029457;28;45328;-79
2022/12/13 11:10:59;;;;;;;;;41.75;36.25;;;;;-0.02;100.00;100379.06;5021530;28;46388;-80
2022/12/13 11:13:43;;;;;;;;;49.75;38.50;;;;;0.00;100.00;100382.50;5021334;28;46383;-79